createdAt,value
2022-10-26T00:01:16.473Z,96.12
2022-10-26T00:03:45.863Z,96.06
2022-10-26T00:06:21.991Z,96.16
2022-10-26T00:08:49.258Z,95.99
2022-10-26T00:11:16.725Z,96.50
2022-10-26T00:13:44.189Z,96.37
2022-10-26T00:16:26.592Z,96.73
2022-10-26T00:18:53.514Z,96.73
2022-10-26T00:21:20.525Z,96.50
2022-10-26T00:23:47.406Z,96.38
2022-10-26T00:26:14.221Z,96.47
2022-10-26T00:28:41.463Z,96.69
2022-10-26T00:31:14.793Z,96.63
2022-10-26T00:33:42.124Z,96.88
2022-10-26T00:36:10.360Z,96.86
2022-10-26T00:38:38.352Z,96.70
2022-10-26T00:41:05.613Z,96.90
2022-10-26T00:43:32.305Z,96.84
2022-10-26T00:46:00.412Z,96.56
2022-10-26T00:48:35.040Z,96.51
2022-10-26T00:51:12.475Z,96.52
2022-10-26T00:53:39.844Z,96.80
2022-10-26T00:56:07.189Z,96.89
2022-10-26T00:58:35.971Z,96.63
2022-10-26T01:01:03.135Z,96.57
2022-10-26T01:03:32.255Z,96.23
2022-10-26T01:05:59.503Z,96.55
2022-10-26T01:08:28.777Z,96.48
2022-10-26T01:10:58.414Z,96.57
2022-10-26T01:13:28.725Z,96.29
2022-10-26T01:17:00.380Z,96.49
2022-10-26T01:19:51.951Z,96.56
2022-10-26T01:22:49.953Z,96.48
2022-10-26T01:25:41.327Z,96.36
2022-10-26T01:28:31.830Z,96.36
2022-10-26T01:31:01.804Z,96.32
2022-10-26T01:33:35.190Z,96.33
2022-10-26T01:52:07.722Z,96.29
2022-10-26T01:54:56.516Z,96.66
2022-10-26T02:01:09.981Z,96.54
2022-10-26T02:16:40.342Z,98.03
2022-10-26T02:32:47.440Z,99.49
2022-10-26T02:36:27.933Z,100.00
2022-10-26T02:39:40.724Z,99.75
2022-10-26T02:43:17.433Z,100.00
2022-10-26T03:06:59.349Z,100.00
2022-10-26T03:14:25.184Z,100.00
2022-10-26T03:17:11.543Z,100.00
2022-10-26T03:34:10.194Z,100.00
2022-10-26T03:37:14.558Z,100.00
2022-10-26T03:40:57.607Z,100.00
2022-10-26T03:59:47.551Z,100.00
2022-10-26T04:10:29.285Z,100.00
2022-10-26T04:23:44.893Z,100.00
2022-10-26T04:35:03.254Z,99.22
2022-10-26T04:49:59.777Z,98.22
2022-10-26T05:03:35.444Z,98.11
2022-10-26T05:26:56.432Z,99.00
2022-10-26T05:33:48.233Z,98.89
2022-10-26T05:46:50.994Z,97.56
2022-10-26T06:06:32.952Z,95.64
2022-10-26T06:09:00.097Z,95.73
2022-10-26T06:11:27.312Z,95.30
2022-10-26T06:13:54.908Z,95.13
2022-10-26T06:16:42.008Z,94.77
2022-10-26T06:19:42.128Z,94.47
2022-10-26T06:22:33.019Z,93.96
2022-10-26T06:25:27.384Z,94.03
2022-10-26T06:31:18.745Z,93.74
2022-10-26T06:33:46.002Z,93.76
2022-10-26T06:36:25.390Z,93.76
2022-10-26T06:39:00.209Z,93.48
2022-10-26T06:41:27.702Z,93.33
2022-10-26T06:43:54.931Z,93.39
2022-10-26T06:46:28.103Z,93.26
2022-10-26T06:49:18.919Z,93.04
2022-10-26T06:51:59.174Z,92.99
2022-10-26T06:54:44.096Z,92.74
2022-10-26T06:57:13.497Z,92.74
2022-10-26T06:59:47.919Z,93.16
2022-10-26T07:02:15.442Z,92.86
2022-10-26T07:04:43.719Z,92.65
2022-10-26T07:07:18.744Z,92.65
2022-10-26T07:09:45.580Z,92.51
2022-10-26T07:12:12.509Z,92.49
2022-10-26T07:14:39.448Z,92.57
2022-10-26T07:17:06.933Z,92.66
2022-10-26T07:19:33.731Z,92.62
2022-10-26T07:22:01.410Z,92.41
2022-10-26T07:24:31.428Z,92.59
2022-10-26T07:26:59.014Z,92.73
2022-10-26T07:29:27.447Z,92.75
2022-10-26T07:34:41.514Z,92.77
2022-10-26T07:37:08.529Z,93.00
2022-10-26T07:39:35.307Z,93.20
2022-10-26T07:42:02.149Z,93.13
2022-10-26T07:44:29.106Z,93.08
2022-10-26T07:46:55.868Z,93.33
2022-10-26T07:49:26.091Z,93.02
2022-10-26T07:51:54.773Z,93.25
2022-10-26T07:54:21.577Z,93.37
2022-10-26T07:56:51.748Z,93.29
2022-10-26T07:59:18.635Z,93.24
2022-10-26T08:01:45.555Z,93.17
2022-10-26T08:04:12.473Z,92.92
2022-10-26T08:06:39.315Z,92.68
2022-10-26T08:09:06.239Z,92.66
2022-10-26T08:11:33.292Z,92.69
2022-10-26T08:14:00.118Z,92.18
2022-10-26T08:16:27.068Z,92.21
2022-10-26T08:18:53.887Z,91.93
2022-10-26T08:21:30.390Z,91.69
2022-10-26T08:24:03.360Z,91.25
2022-10-26T08:26:30.809Z,91.47
2022-10-26T08:28:57.668Z,91.40
2022-10-26T08:31:24.749Z,91.28
2022-10-26T08:33:51.507Z,91.58
2022-10-26T08:36:24.555Z,91.81
2022-10-26T08:38:52.631Z,91.59
2022-10-26T08:41:36.408Z,91.38
2022-10-26T08:44:30.531Z,91.19
2022-10-26T08:47:08.461Z,91.83
2022-10-26T08:49:44.475Z,92.17
2022-10-26T08:52:19.221Z,91.49
2022-10-26T08:54:53.327Z,90.92
2022-10-26T08:57:38.460Z,90.16
2022-10-26T09:00:19.244Z,90.17
2022-10-26T09:02:51.271Z,89.14
2022-10-26T09:05:23.860Z,88.79
2022-10-26T09:08:04.487Z,88.79
2022-10-26T09:10:39.715Z,88.16
2022-10-26T09:13:56.385Z,86.86
2022-10-26T09:16:54.312Z,86.85
2022-10-26T09:19:24.436Z,86.57
2022-10-26T09:22:03.358Z,86.70
2022-10-26T09:24:39.196Z,86.12
2022-10-26T09:27:29.080Z,85.58
2022-10-26T09:30:18.615Z,85.51
2022-10-26T09:32:53.605Z,84.77
2022-10-26T09:35:50.091Z,83.77
2022-10-26T09:38:49.224Z,84.07
2022-10-26T09:41:39.145Z,83.52
2022-10-26T09:44:20.464Z,82.84
2022-10-26T09:47:05.212Z,83.28
2022-10-26T09:49:42.663Z,82.67
2022-10-26T09:54:36.517Z,82.67
2022-10-26T09:57:05.041Z,82.34
2022-10-26T09:59:38.724Z,80.53
2022-10-26T10:02:37.703Z,80.41
2022-10-26T10:05:50.693Z,80.26
2022-10-26T10:08:22.293Z,79.22
2022-10-26T10:11:08.367Z,78.55
2022-10-26T10:13:44.150Z,78.87
2022-10-26T10:16:20.872Z,78.34
2022-10-26T10:19:00.135Z,78.27
2022-10-26T10:21:39.183Z,77.79
2022-10-26T10:24:25.559Z,76.91
2022-10-26T10:27:17.527Z,74.79
2022-10-26T10:29:47.183Z,75.23
2022-10-26T10:32:23.360Z,74.32
2022-10-26T10:34:58.461Z,73.96
2022-10-26T10:37:30.663Z,71.86
2022-10-26T10:40:24.474Z,72.74
2022-10-26T10:42:55.417Z,73.25
2022-10-26T10:45:23.085Z,72.21
2022-10-26T10:48:03.238Z,72.03
2022-10-26T10:50:31.750Z,71.82
2022-10-26T10:53:35.720Z,70.88
2022-10-26T10:56:20.644Z,71.85
2022-10-26T10:59:11.397Z,72.11
2022-10-26T11:01:56.915Z,72.06
2022-10-26T11:04:35.630Z,70.21
2022-10-26T11:07:06.480Z,70.79
2022-10-26T11:09:38.148Z,70.66
2022-10-26T11:12:15.786Z,70.59
2022-10-26T11:14:53.819Z,68.97
2022-10-26T11:17:32.032Z,69.26
2022-10-26T11:20:16.188Z,69.43
2022-10-26T11:23:02.213Z,69.20
2022-10-26T11:25:44.726Z,68.54
2022-10-26T11:28:34.180Z,69.26
2022-10-26T11:31:11.308Z,68.86
2022-10-26T11:33:47.593Z,68.36
2022-10-26T11:36:22.055Z,67.55
2022-10-26T11:39:14.416Z,67.16
2022-10-26T11:41:51.628Z,67.65
2022-10-26T11:44:40.678Z,65.59
2022-10-26T11:47:22.667Z,66.47
2022-10-26T11:50:12.184Z,66.36
2022-10-26T11:53:10.950Z,65.92
2022-10-26T11:55:39.980Z,66.89
2022-10-26T11:58:11.695Z,67.14
2022-10-26T12:01:14.337Z,67.34
2022-10-26T12:03:50.868Z,67.12
2022-10-26T12:06:26.088Z,66.52
2022-10-26T12:09:18.155Z,66.40
2022-10-26T12:11:58.234Z,65.67
2022-10-26T12:14:37.981Z,65.77
2022-10-26T12:17:14.912Z,64.47
2022-10-26T12:19:54.561Z,64.59
2022-10-26T12:22:30.956Z,65.09
2022-10-26T12:25:16.062Z,64.42
2022-10-26T12:27:42.849Z,64.41
2022-10-26T12:30:19.008Z,64.51
2022-10-26T12:32:45.733Z,64.13
2022-10-26T12:35:44.982Z,63.97
2022-10-26T12:38:37.920Z,64.28
2022-10-26T12:41:18.713Z,63.14
2022-10-26T12:43:46.379Z,62.65
2022-10-26T12:46:13.266Z,62.74
2022-10-26T12:48:44.615Z,63.45
2022-10-26T12:51:24.939Z,63.35
2022-10-26T12:53:57.986Z,62.84
2022-10-26T12:56:55.550Z,62.36
2022-10-26T12:59:33.947Z,63.06
2022-10-26T13:02:31.820Z,62.62
2022-10-26T13:05:34.616Z,62.33
2022-10-26T13:08:06.711Z,62.79
2022-10-26T13:10:35.610Z,63.09
2022-10-26T13:13:06.593Z,62.76
2022-10-26T13:15:41.327Z,62.94
2022-10-26T13:18:18.033Z,62.26
2022-10-26T13:21:15.142Z,61.54
2022-10-26T13:23:46.791Z,62.13
2022-10-26T13:26:17.876Z,61.64
2022-10-26T13:29:01.122Z,61.91
2022-10-26T13:31:31.528Z,61.47
2022-10-26T13:37:13.307Z,60.73
2022-10-26T13:39:44.313Z,60.84
2022-10-26T13:42:20.153Z,61.04
2022-10-26T13:44:59.669Z,61.63
2022-10-26T13:47:49.274Z,60.93
2022-10-26T13:50:21.307Z,60.83
2022-10-26T13:52:54.873Z,61.27
2022-10-26T13:55:32.870Z,60.63
2022-10-26T13:58:18.006Z,60.77
2022-10-26T14:01:10.553Z,61.12
2022-10-26T14:03:38.418Z,61.32
2022-10-26T14:06:18.501Z,61.38
2022-10-26T14:08:49.540Z,61.30
2022-10-26T14:11:22.286Z,61.67
2022-10-26T14:13:51.235Z,61.39
2022-10-26T14:16:20.607Z,60.80
2022-10-26T14:18:49.380Z,60.52
2022-10-26T14:21:20.731Z,60.70
2022-10-26T14:23:58.853Z,61.29
2022-10-26T14:26:42.225Z,60.42
2022-10-26T14:29:20.986Z,60.00
2022-10-26T14:31:49.342Z,60.74
2022-10-26T14:34:17.312Z,60.29
2022-10-26T14:37:02.178Z,60.15
2022-10-26T14:39:46.408Z,60.25
2022-10-26T14:42:33.641Z,60.54
2022-10-26T14:45:02.504Z,60.72
2022-10-26T14:47:32.244Z,60.19
2022-10-26T14:52:36.213Z,59.79
2022-10-26T14:55:14.990Z,60.06
2022-10-26T14:57:45.159Z,60.28
2022-10-26T15:00:23.692Z,60.32
2022-10-26T15:02:56.563Z,60.52
2022-10-26T15:05:35.708Z,59.22
2022-10-26T15:08:03.476Z,59.17
2022-10-26T15:10:36.241Z,59.25
2022-10-26T15:13:25.486Z,59.67
2022-10-26T15:15:57.496Z,59.66
2022-10-26T15:18:30.577Z,58.40
2022-10-26T15:20:57.963Z,58.68
2022-10-26T15:23:28.228Z,58.54
2022-10-26T15:25:59.093Z,57.39
2022-10-26T15:28:39.556Z,57.01
2022-10-26T15:31:10.811Z,57.49
2022-10-26T15:34:03.232Z,57.64
2022-10-26T15:36:32.012Z,57.34
2022-10-26T15:39:00.050Z,58.12
2022-10-26T15:41:31.046Z,58.83
2022-10-26T15:44:01.730Z,58.32
2022-10-26T15:46:37.236Z,58.42
2022-10-26T15:49:08.056Z,58.21
2022-10-26T15:51:35.485Z,58.73
2022-10-26T15:54:04.672Z,58.77
2022-10-26T15:56:32.440Z,59.23
2022-10-26T15:58:59.487Z,59.03
2022-10-26T16:01:29.637Z,59.43
2022-10-26T16:03:56.496Z,59.74
2022-10-26T16:06:34.022Z,59.73
2022-10-26T16:09:04.115Z,59.62
2022-10-26T16:11:31.054Z,60.11
2022-10-26T16:14:01.071Z,60.44
2022-10-26T16:16:30.550Z,60.69
2022-10-26T16:19:18.407Z,60.98
2022-10-26T16:21:44.276Z,61.42
2022-10-26T16:24:12.056Z,61.83
2022-10-26T16:26:38.802Z,62.33
2022-10-26T16:29:05.548Z,62.43
2022-10-26T16:31:32.313Z,62.58
2022-10-26T16:34:01.787Z,63.10
2022-10-26T16:36:32.926Z,63.42
2022-10-26T16:39:00.039Z,63.79
2022-10-26T16:41:26.863Z,64.08
2022-10-26T16:43:53.640Z,64.52
2022-10-26T16:46:21.728Z,64.73
2022-10-26T16:48:50.423Z,65.13
2022-10-26T16:51:22.612Z,65.55
2022-10-26T16:53:54.115Z,65.85
2022-10-26T16:56:25.506Z,65.88
2022-10-26T16:58:52.952Z,66.30
2022-10-26T17:01:21.478Z,66.68
2022-10-26T17:03:51.741Z,67.11
2022-10-26T17:06:19.232Z,67.36
2022-10-26T17:08:46.123Z,67.66
2022-10-26T17:11:19.744Z,67.85
2022-10-26T17:13:47.761Z,68.21
2022-10-26T17:16:21.259Z,68.76
2022-10-26T17:18:48.910Z,69.02
2022-10-26T17:21:20.346Z,69.11
2022-10-26T17:23:47.256Z,69.78
2022-10-26T17:26:15.241Z,69.87
2022-10-26T17:28:42.181Z,70.04
2022-10-26T17:31:10.482Z,70.52
2022-10-26T17:33:39.559Z,70.87
2022-10-26T17:36:07.987Z,71.16
2022-10-26T17:38:38.293Z,71.64
2022-10-26T17:41:12.015Z,71.81
2022-10-26T17:43:40.806Z,71.69
2022-10-26T17:46:14.418Z,72.10
2022-10-26T17:48:41.492Z,72.29
2022-10-26T17:51:16.381Z,72.08
2022-10-26T17:53:51.288Z,72.21
2022-10-26T17:56:32.147Z,72.40
2022-10-26T17:59:03.983Z,72.30
2022-10-26T18:01:32.189Z,72.34
2022-10-26T18:04:00.568Z,72.65
2022-10-26T18:06:27.446Z,72.98
2022-10-26T18:08:57.854Z,72.81
2022-10-26T18:11:27.212Z,72.94
2022-10-26T18:13:58.172Z,73.02
2022-10-26T18:16:27.734Z,73.19
2022-10-26T18:19:01.658Z,73.17
2022-10-26T18:21:32.509Z,73.18
2022-10-26T18:23:59.915Z,73.25
2022-10-26T18:26:29.434Z,73.38
2022-10-26T18:29:00.862Z,73.66
2022-10-26T18:31:30.546Z,73.66
2022-10-26T18:34:03.643Z,73.86
2022-10-26T18:36:31.761Z,74.01
2022-10-26T18:38:58.719Z,74.02
2022-10-26T18:41:26.624Z,74.07
2022-10-26T18:43:59.076Z,74.53
2022-10-26T18:46:29.156Z,74.56
2022-10-26T18:48:58.247Z,74.65
2022-10-26T18:51:30.685Z,74.55
2022-10-26T18:53:58.631Z,75.32
2022-10-26T18:56:26.398Z,75.53
2022-10-26T18:58:58.550Z,75.52
2022-10-26T19:01:39.610Z,75.66
2022-10-26T19:04:09.295Z,75.45
2022-10-26T19:06:45.220Z,75.64
2022-10-26T19:09:12.644Z,75.79
2022-10-26T19:11:39.668Z,75.86
2022-10-26T19:14:07.820Z,76.12
2022-10-26T19:16:50.862Z,76.70
2022-10-26T19:19:19.767Z,76.53
2022-10-26T19:21:49.425Z,76.96
2022-10-26T19:24:20.223Z,77.44
2022-10-26T19:26:49.102Z,77.57
2022-10-26T19:29:17.814Z,77.85
2022-10-26T19:31:46.228Z,78.07
2022-10-26T19:34:15.848Z,78.09
2022-10-26T19:36:45.243Z,78.06
2022-10-26T19:39:14.487Z,78.01
2022-10-26T19:41:41.417Z,78.39
2022-10-26T19:44:11.554Z,78.31
2022-10-26T19:46:39.865Z,78.54
2022-10-26T19:49:06.814Z,78.37
2022-10-26T19:51:33.671Z,78.59
2022-10-26T19:54:03.841Z,78.31
2022-10-26T19:56:32.652Z,78.39
2022-10-26T19:58:59.882Z,78.44
2022-10-26T20:01:26.899Z,78.29
2022-10-26T20:03:53.830Z,78.05
2022-10-26T20:06:20.812Z,78.03
2022-10-26T20:08:49.388Z,78.20
2022-10-26T20:11:18.591Z,78.20
2022-10-26T20:13:47.325Z,78.64
2022-10-26T20:16:16.182Z,78.57
2022-10-26T20:18:47.519Z,79.20
2022-10-26T20:21:17.379Z,79.12
2022-10-26T20:23:45.171Z,79.65
2022-10-26T20:26:19.058Z,80.16
2022-10-26T20:28:48.251Z,79.99
2022-10-26T20:31:15.443Z,80.18
2022-10-26T20:33:42.292Z,80.34
2022-10-26T20:36:09.151Z,80.70
2022-10-26T20:38:36.739Z,80.78
2022-10-26T20:41:07.708Z,81.06
2022-10-26T20:43:40.199Z,81.34
2022-10-26T20:46:33.526Z,81.47
2022-10-26T20:49:00.713Z,82.05
2022-10-26T20:52:26.014Z,81.97
2022-10-26T20:55:04.685Z,82.31
2022-10-26T20:57:33.261Z,82.38
2022-10-26T21:00:09.166Z,82.73
2022-10-26T21:02:36.044Z,82.56
2022-10-26T21:05:03.556Z,82.82
2022-10-26T21:07:30.371Z,83.42
2022-10-26T21:09:57.133Z,83.58
2022-10-26T21:12:24.173Z,83.95
2022-10-26T21:14:50.969Z,84.31
2022-10-26T21:17:17.706Z,84.29
2022-10-26T21:19:44.782Z,84.35
2022-10-26T21:22:11.629Z,84.81
2022-10-26T21:24:38.392Z,85.08
2022-10-26T21:27:05.114Z,85.22
2022-10-26T21:29:31.874Z,85.30
2022-10-26T21:31:58.645Z,85.56
2022-10-26T21:34:25.503Z,85.93
2022-10-26T21:36:52.307Z,85.99
2022-10-26T21:39:19.256Z,86.41
2022-10-26T21:41:45.995Z,86.54
2022-10-26T21:44:24.725Z,87.32
2022-10-26T21:46:59.482Z,86.92
2022-10-26T21:49:26.235Z,87.29
2022-10-26T21:51:53.060Z,87.36
2022-10-26T21:54:19.832Z,87.51
2022-10-26T21:56:46.567Z,87.32
2022-10-26T21:59:13.299Z,87.54
2022-10-26T22:01:40.398Z,87.73
2022-10-26T22:04:07.530Z,87.96
2022-10-26T22:06:34.385Z,88.15
2022-10-26T22:09:01.121Z,87.77
2022-10-26T22:11:27.963Z,87.91
2022-10-26T22:13:54.733Z,88.18
2022-10-26T22:16:28.239Z,88.21
2022-10-26T22:18:58.226Z,88.54
2022-10-26T22:21:27.585Z,88.39
2022-10-26T22:23:55.247Z,88.63
2022-10-26T22:26:24.707Z,88.56
2022-10-26T22:28:55.403Z,88.87
2022-10-26T22:34:18.204Z,89.73
2022-10-26T22:36:45.127Z,89.55
2022-10-26T22:39:11.872Z,89.71
2022-10-26T22:41:38.711Z,90.05
2022-10-26T22:44:05.695Z,90.14
2022-10-26T22:46:32.698Z,90.27
2022-10-26T22:49:01.999Z,90.70
2022-10-26T22:51:34.494Z,90.37
2022-10-26T22:54:03.705Z,90.53
2022-10-26T22:56:32.856Z,90.45
2022-10-26T22:58:59.843Z,90.69
2022-10-26T23:01:33.661Z,91.38
2022-10-26T23:04:00.771Z,91.13
2022-10-26T23:06:31.814Z,91.14
2022-10-26T23:08:58.945Z,91.03
2022-10-26T23:11:28.733Z,90.69
2022-10-26T23:13:58.566Z,90.91
2022-10-26T23:16:26.166Z,90.92
2022-10-26T23:18:56.184Z,90.69
2022-10-26T23:24:11.956Z,90.79
2022-10-26T23:26:38.691Z,91.05
2022-10-26T23:29:06.250Z,91.00
2022-10-26T23:31:32.976Z,91.04
2022-10-26T23:33:59.745Z,91.17
2022-10-26T23:36:26.743Z,91.08
2022-10-26T23:38:53.650Z,91.14
2022-10-26T23:41:20.400Z,91.39
2022-10-26T23:43:47.151Z,91.38
2022-10-26T23:46:14.052Z,91.18
2022-10-26T23:48:41.212Z,91.30
2022-10-26T23:51:07.986Z,91.42
2022-10-26T23:53:35.129Z,91.67
2022-10-26T23:56:02.132Z,91.64
2022-10-26T23:58:29.234Z,91.64
